Time;durP1;ratioP1;P1;durP2;ratioP2;P2;SDS_P1;SDS_P2;PMS_P1;PMS_P2;Temp;Humidity;BMP_temperature;BMP_pressure;BME280_temperature;BME280_humidity;BME280_pressure;Samples;Min_cycle;Max_cycle;Signal;HPM_P1;HPM_P2
2021/04/01 00:01:08;;;;;;;6.20;1.98;;;22.90;76.00;;;;;;5073815;28;20028;-66
2021/04/01 00:03:37;;;;;;;7.03;2.97;;;23.00;75.70;;;;;;5073973;28;20024;-64
2021/04/01 00:06:05;;;;;;;6.15;1.90;;;23.10;75.10;;;;;;5077290;28;20052;-63
2021/04/01 00:08:32;;;;;;;7.32;1.77;;;23.30;74.80;;;;;;5093913;28;20386;-62
2021/04/01 00:11:00;;;;;;;4.43;2.03;;;23.30;74.70;;;;;;5093318;28;20054;-59
2021/04/01 00:13:28;;;;;;;9.57;1.52;;;23.30;74.90;;;;;;5092945;28;20058;-63
2021/04/01 00:15:58;;;;;;;5.88;1.55;;;23.30;74.60;;;;;;5092716;28;20077;-57
2021/04/01 00:18:26;;;;;;;4.35;2.03;;;23.30;74.40;;;;;;5093198;28;20440;-59
2021/04/01 00:20:53;;;;;;;16.83;3.38;;;23.30;74.10;;;;;;5093553;28;20032;-60
2021/04/01 00:23:21;;;;;;;4.32;1.67;;;23.30;74.30;;;;;;5093636;28;20093;-61
2021/04/01 00:25:49;;;;;;;4.93;1.73;;;23.40;74.00;;;;;;5093375;28;20024;-67
2021/04/01 00:28:17;;;;;;;4.10;1.98;;;23.40;74.10;;;;;;5092862;28;20100;-60
2021/04/01 00:30:44;;;;;;;6.65;1.95;;;23.40;73.90;;;;;;5093593;28;20026;-63
2021/04/01 00:33:11;;;;;;;3.88;1.20;;;23.40;74.20;;;;;;5093253;28;20032;-59
2021/04/01 00:35:39;;;;;;;4.53;1.83;;;23.30;74.50;;;;;;5093389;28;20016;-59
2021/04/01 00:38:06;;;;;;;3.50;1.33;;;23.40;74.50;;;;;;5093158;28;20030;-56
2021/04/01 00:40:34;;;;;;;2.70;1.30;;;23.40;74.00;;;;;;5093225;28;20049;-56
2021/04/01 00:43:01;;;;;;;3.17;1.60;;;23.30;74.50;;;;;;5092294;28;20036;-61
2021/04/01 00:45:29;;;;;;;4.85;1.40;;;23.30;74.60;;;;;;5092059;28;20020;-61
2021/04/01 00:47:56;;;;;;;3.42;1.67;;;23.40;74.30;;;;;;5092818;28;20410;-59
2021/04/01 00:50:29;;;;;;;3.78;1.42;;;23.30;74.70;;;;;;5092610;28;20159;-55
2021/04/01 00:52:58;;;;;;;5.63;1.35;;;23.30;74.60;;;;;;5093284;28;20081;-56
2021/04/01 00:55:26;;;;;;;4.65;1.42;;;23.40;74.30;;;;;;5092661;28;20111;-62
2021/04/01 00:57:58;;;;;;;8.35;1.90;;;23.30;74.70;;;;;;5092730;28;20481;-49
2021/04/01 01:00:31;;;;;;;6.68;1.83;;;23.30;74.40;;;;;;5092791;28;20024;-60
2021/04/01 01:02:59;;;;;;;4.03;1.45;;;23.30;74.70;;;;;;5093100;28;20065;-60
2021/04/01 01:05:28;;;;;;;2.42;1.40;;;23.30;74.90;;;;;;5092472;28;20020;-64
2021/04/01 01:07:59;;;;;;;6.63;1.80;;;23.30;75.00;;;;;;5074551;28;20059;-56
2021/04/01 01:10:30;;;;;;;3.78;1.40;;;23.30;75.30;;;;;;5092820;28;20021;-65
2021/04/01 01:12:59;;;;;;;2.40;1.80;;;23.40;74.10;;;;;;5093268;28;20050;-61
2021/04/01 01:15:27;;;;;;;5.80;1.65;;;23.40;75.00;;;;;;5092808;28;20024;-56
2021/04/01 01:17:57;;;;;;;3.65;1.50;;;23.40;75.30;;;;;;5092108;28;20028;-51
2021/04/01 01:20:28;;;;;;;4.80;2.05;;;23.50;75.10;;;;;;5078225;28;20445;-60
2021/04/01 01:22:56;;;;;;;5.22;1.67;;;23.50;74.90;;;;;;5068165;28;20039;-54
2021/04/01 01:25:24;;;;;;;4.07;1.45;;;23.60;74.60;;;;;;5067719;28;20026;-54
2021/04/01 01:27:51;;;;;;;3.17;1.85;;;23.60;74.80;;;;;;5070290;28;20031;-55
2021/04/01 01:30:21;;;;;;;5.68;2.08;;;23.70;74.80;;;;;;5070134;28;20067;-52
2021/04/01 01:32:56;;;;;;;4.38;1.85;;;23.80;74.30;;;;;;5051698;28;20080;-52
2021/04/01 01:35:36;;;;;;;5.10;1.77;;;23.70;74.50;;;;;;5068161;28;20090;-61
2021/04/01 01:38:08;;;;;;;4.53;1.90;;;23.80;74.70;;;;;;5070747;28;20017;-54
2021/04/01 01:40:37;;;;;;;8.68;1.70;;;23.80;74.40;;;;;;5069337;28;20045;-50
2021/04/01 01:43:08;;;;;;;7.35;1.52;;;23.90;74.10;;;;;;5068409;28;20032;-54
2021/04/01 01:45:37;;;;;;;3.73;1.57;;;23.90;73.80;;;;;;5068515;28;20052;-58
2021/04/01 01:48:06;;;;;;;7.38;2.47;;;23.90;74.40;;;;;;5070312;28;20525;-49
2021/04/01 01:50:37;;;;;;;5.90;1.20;;;23.90;74.40;;;;;;5051360;28;20036;-50
2021/04/01 01:53:05;;;;;;;3.38;1.40;;;23.90;74.60;;;;;;5069258;28;20032;-50
2021/04/01 01:55:34;;;;;;;5.32;1.63;;;23.90;74.40;;;;;;5067364;28;20025;-60
2021/04/01 01:58:03;;;;;;;3.90;1.42;;;24.00;74.70;;;;;;5069998;28;20136;-52
2021/04/01 02:00:44;;;;;;;4.07;1.60;;;24.10;73.50;;;;;;5069270;28;20024;-52
2021/04/01 02:03:13;;;;;;;4.40;1.33;;;24.00;74.60;;;;;;5064242;28;20146;-57
2021/04/01 02:05:41;;;;;;;4.90;1.88;;;24.00;75.20;;;;;;5068389;28;20024;-55
2021/04/01 02:08:10;;;;;;;6.95;2.22;;;24.10;74.70;;;;;;5068995;28;20144;-50
2021/04/01 02:10:41;;;;;;;4.50;1.70;;;24.20;75.10;;;;;;5068507;28;20396;-49
2021/04/01 02:13:09;;;;;;;2.50;1.55;;;24.30;74.60;;;;;;5067779;28;20029;-58
2021/04/01 02:15:41;;;;;;;3.67;1.40;;;24.40;73.90;;;;;;5050524;28;20033;-52
2021/04/01 02:18:15;;;;;;;3.35;1.67;;;24.50;74.20;;;;;;5073660;28;20059;-60
2021/04/01 02:20:46;;;;;;;4.30;1.75;;;24.60;74.10;;;;;;5072503;28;20032;-63
2021/04/01 02:23:24;;;;;;;2.35;1.15;;;24.70;73.20;;;;;;5070849;28;20037;-53
2021/04/01 02:25:53;;;;;;;2.67;1.35;;;24.80;72.30;;;;;;5070870;28;20039;-60
2021/04/01 02:28:22;;;;;;;3.30;1.58;;;24.80;72.00;;;;;;5073265;28;20042;-53
2021/04/01 02:30:52;;;;;;;3.28;1.55;;;24.80;72.60;;;;;;5073277;28;20072;-51
2021/04/01 02:33:25;;;;;;;1.98;1.20;;;24.70;72.40;;;;;;5069392;28;20024;-56
2021/04/01 02:35:54;;;;;;;2.92;1.60;;;24.70;72.30;;;;;;5072901;28;20093;-60
2021/04/01 02:38:23;;;;;;;3.33;1.52;;;24.70;72.50;;;;;;5074030;28;20108;-56
2021/04/01 02:40:51;;;;;;;5.43;1.90;;;24.60;73.40;;;;;;5073404;28;20111;-55
2021/04/01 02:43:40;;;;;;;5.43;1.27;;;24.60;73.30;;;;;;5069413;28;20111;-61
2021/04/01 02:46:08;;;;;;;7.13;1.70;;;24.70;73.70;;;;;;5071954;28;20514;-57
2021/04/01 02:48:35;;;;;;;4.38;1.73;;;24.70;73.80;;;;;;5073080;28;20105;-57
2021/04/01 02:51:05;;;;;;;3.70;1.75;;;24.70;73.60;;;;;;5072219;28;20116;-53
2021/04/01 02:53:32;;;;;;;3.95;1.67;;;24.70;73.50;;;;;;5068442;28;21723;-58
2021/04/01 02:55:59;;;;;;;4.05;1.23;;;24.80;73.30;;;;;;5072942;28;20403;-54
2021/04/01 02:58:27;;;;;;;3.03;1.40;;;24.80;73.40;;;;;;5073057;28;20078;-63
2021/04/01 03:00:55;;;;;;;1.80;1.25;;;24.80;73.30;;;;;;5054500;28;20104;-53
2021/04/01 03:03:29;;;;;;;4.93;1.80;;;24.70;73.60;;;;;;5067995;28;20040;-56
2021/04/01 03:05:57;;;;;;;5.13;2.03;;;24.70;73.30;;;;;;5072538;28;20404;-62
2021/04/01 03:08:25;;;;;;;3.40;1.60;;;24.70;73.80;;;;;;5054507;28;20074;-60
2021/04/01 03:10:56;;;;;;;3.72;1.60;;;24.70;73.50;;;;;;5072413;28;20056;-55
2021/04/01 03:13:24;;;;;;;4.32;1.70;;;24.70;74.00;;;;;;5067896;28;20063;-57
2021/04/01 03:15:52;;;;;;;4.05;1.48;;;24.70;73.80;;;;;;5073308;28;20083;-60
2021/04/01 03:18:21;;;;;;;4.50;1.70;;;24.60;74.30;;;;;;5072326;28;20391;-60
2021/04/01 03:20:49;;;;;;;4.03;1.70;;;24.60;74.80;;;;;;5054913;28;20024;-55
2021/04/01 03:23:18;;;;;;;4.10;1.83;;;24.60;74.80;;;;;;5068818;28;20051;-56
2021/04/01 03:25:45;;;;;;;3.25;1.67;;;24.70;75.20;;;;;;5071927;28;20036;-55
2021/04/01 03:28:16;;;;;;;3.05;1.45;;;24.70;74.20;;;;;;5071320;28;20505;-53
2021/04/01 03:30:50;;;;;;;2.45;1.40;;;24.70;75.00;;;;;;5072828;28;20043;-59
2021/04/01 03:33:18;;;;;;;5.95;1.73;;;24.70;73.50;;;;;;5064992;28;20499;-58
2021/04/01 03:35:45;;;;;;;3.05;1.48;;;24.70;74.10;;;;;;5071326;28;20165;-54
2021/04/01 03:38:14;;;;;;;3.42;1.63;;;24.70;75.10;;;;;;5069089;28;20028;-53
2021/04/01 03:40:41;;;;;;;7.15;2.20;;;24.60;75.20;;;;;;5052857;28;20043;-53
2021/04/01 03:43:09;;;;;;;3.42;1.52;;;24.60;74.00;;;;;;5070945;28;20036;-56
2021/04/01 03:45:37;;;;;;;2.53;1.38;;;24.60;75.50;;;;;;5071797;28;20100;-58
2021/04/01 03:48:05;;;;;;;4.07;1.88;;;24.50;75.80;;;;;;5065200;28;20403;-56
2021/04/01 03:50:32;;;;;;;2.92;1.15;;;24.50;76.10;;;;;;5052614;28;20032;-56
2021/04/01 03:53:00;;;;;;;3.53;1.70;;;24.50;76.30;;;;;;5070946;28;20021;-57
2021/04/01 04:01:08;;;;;;;6.82;1.63;;;24.50;76.40;;;;;;5070030;28;20070;-56
2021/04/01 04:08:53;;;;;;;2.75;1.40;;;24.60;76.50;;;;;;5072196;28;20025;-64
2021/04/01 04:11:41;;;;;;;6.45;1.98;;;24.70;76.10;;;;;;5071815;28;20094;-59
2021/04/01 04:14:20;;;;;;;3.22;1.50;;;24.80;74.80;;;;;;5069804;28;20035;-55
2021/04/01 04:16:48;;;;;;;4.13;2.13;;;24.80;75.50;;;;;;5067530;28;20075;-57
2021/04/01 04:19:15;;;;;;;6.28;2.55;;;24.70;76.10;;;;;;5071247;28;20029;-54
2021/04/01 04:21:43;;;;;;;4.57;1.88;;;24.90;74.10;;;;;;5071177;28;20029;-54
2021/04/01 04:24:12;;;;;;;2.33;1.30;;;25.00;74.30;;;;;;5070723;28;20075;-56
2021/04/01 04:26:39;;;;;;;3.53;1.38;;;25.00;75.00;;;;;;5067307;28;20379;-59
2021/04/01 04:29:06;;;;;;;3.53;1.38;;;24.90;74.50;;;;;;5071063;28;20024;-57
2021/04/01 04:31:34;;;;;;;2.90;1.20;;;25.00;75.30;;;;;;5070787;28;20407;-56
2021/04/01 04:34:01;;;;;;;4.90;2.30;;;25.00;75.00;;;;;;5070680;28;20119;-56
2021/04/01 04:36:29;;;;;;;3.90;1.55;;;25.00;74.20;;;;;;5067244;28;20024;-52
2021/04/01 04:38:56;;;;;;;2.72;1.40;;;24.90;75.30;;;;;;5070162;28;20479;-56
2021/04/01 04:41:23;;;;;;;5.07;1.77;;;24.90;75.30;;;;;;5070774;28;20036;-54
2021/04/01 04:43:51;;;;;;;2.83;1.30;;;24.90;74.00;;;;;;5070339;28;20023;-63
2021/04/01 04:46:18;;;;;;;3.60;1.70;;;24.90;73.70;;;;;;5048806;28;21246;-59
2021/04/01 04:48:45;;;;;;;3.10;1.27;;;24.90;74.70;;;;;;5068462;28;20028;-59
2021/04/01 04:51:13;;;;;;;4.60;2.13;;;24.90;74.60;;;;;;5070654;28;20780;-67
2021/04/01 04:53:40;;;;;;;6.63;1.80;;;24.80;75.90;;;;;;5069710;28;20491;-50
2021/04/01 04:56:12;;;;;;;4.15;1.35;;;24.70;76.00;;;;;;5066762;28;20024;-53
2021/04/01 04:58:46;;;;;;;3.67;1.20;;;24.80;75.80;;;;;;5069948;28;20119;-60
2021/04/01 05:04:39;;;;;;;3.90;1.20;;;24.70;76.50;;;;;;5069971;28;20032;-64
2021/04/01 05:06:55;;;;;;;2.53;1.27;;;24.60;77.10;;;;;;5064058;28;20087;-59
2021/04/01 05:09:23;;;;;;;5.35;1.42;;;24.60;75.10;;;;;;5070098;28;20029;-65
2021/04/01 05:11:50;;;;;;;4.43;1.45;;;24.50;76.70;;;;;;5053086;28;20491;-54
2021/04/01 05:14:18;;;;;;;5.60;1.35;;;24.60;77.60;;;;;;5069893;28;20032;-56
2021/04/01 05:16:45;;;;;;;3.83;1.60;;;24.60;77.50;;;;;;5065870;28;20024;-58
2021/04/01 05:19:14;;;;;;;2.80;1.70;;;24.50;78.40;;;;;;5070460;28;20490;-49
2021/04/01 05:24:24;;;;;;;4.32;1.45;;;24.50;77.50;;;;;;5067074;28;20020;-63
2021/04/01 05:27:07;;;;;;;3.35;1.50;;;24.60;77.80;;;;;;5065536;28;20060;-51
2021/04/01 05:29:38;;;;;;;2.25;1.35;;;24.60;77.50;;;;;;5070205;28;20025;-56
2021/04/01 05:32:06;;;;;;;3.00;1.57;;;24.60;78.10;;;;;;5070174;28;20103;-54
2021/04/01 05:34:37;;;;;;;3.08;1.30;;;24.60;77.80;;;;;;5069513;28;20031;-58
2021/04/01 05:37:06;;;;;;;4.18;1.63;;;24.60;77.70;;;;;;5065213;28;20107;-53
2021/04/01 05:39:35;;;;;;;3.80;1.63;;;24.50;77.70;;;;;;5070095;28;20041;-62
2021/04/01 05:42:03;;;;;;;3.38;1.33;;;24.50;77.60;;;;;;5052191;28;20226;-60
2021/04/01 05:50:10;;;;;;;2.20;1.50;;;24.50;77.30;;;;;;5038564;28;20441;-52
2021/04/01 05:53:14;;;;;;;3.10;1.40;;;24.40;78.50;;;;;;5069142;28;20029;-55
2021/04/01 06:04:33;;;;;;;3.35;1.38;;;24.40;79.40;;;;;;5067460;28;20154;-55
2021/04/01 06:07:13;;;;;;;3.47;1.45;;;24.30;78.10;;;;;;5061797;28;20110;-56
2021/04/01 06:09:45;;;;;;;5.28;2.00;;;24.40;79.00;;;;;;5068825;28;20147;-59
2021/04/01 06:12:13;;;;;;;2.58;1.45;;;24.30;79.50;;;;;;5069447;28;20028;-52
2021/04/01 06:14:53;;;;;;;3.28;1.40;;;24.40;78.80;;;;;;5069369;28;20039;-61
2021/04/01 06:17:23;;;;;;;7.35;2.45;;;24.40;78.70;;;;;;5064806;28;20081;-61
2021/04/01 06:19:55;;;;;;;7.90;3.00;;;24.30;80.10;;;;;;5069656;28;20363;-51
2021/04/01 06:22:25;;;;;;;4.82;2.15;;;24.40;76.60;;;;;;5067440;28;20090;-63
2021/04/01 06:24:54;;;;;;;5.65;3.50;;;24.30;72.90;;;;;;5068599;28;20476;-57
2021/04/01 06:27:28;;;;;;;5.68;2.75;;;24.40;78.60;;;;;;5064300;28;20025;-54
2021/04/01 06:32:57;;;;;;;6.10;3.33;;;24.40;75.20;;;;;;5068530;28;20261;-60
2021/04/01 06:35:29;;;;;;;7.07;6.28;;;24.40;77.00;;;;;;5070632;28;20104;-58
2021/04/01 06:40:49;;;;;;;5.18;4.68;;;24.30;79.90;;;;;;5070287;28;20021;-62
2021/04/01 06:43:28;;;;;;;12.13;5.20;;;24.30;79.70;;;;;;5070505;28;20032;-55
2021/04/01 06:46:08;;;;;;;8.15;5.28;;;24.40;75.80;;;;;;5071035;28;20021;-52
2021/04/01 06:56:43;;;;;;;7.55;1.95;;;24.50;75.10;;;;;;5070732;28;20052;-56
2021/04/01 07:02:40;;;;;;;11.30;10.10;;;24.50;78.90;;;;;;5070173;28;20379;-60
2021/04/01 07:04:42;;;;;;;10.25;7.95;;;24.60;77.60;;;;;;5060128;28;20082;-57
2021/04/01 07:07:16;;;;;;;6.43;5.63;;;24.70;78.50;;;;;;5074376;28;20102;-60
2021/04/01 07:12:45;;;;;;;6.45;4.85;;;24.80;75.80;;;;;;5073870;28;20048;-61
2021/04/01 07:15:18;;;;;;;11.50;4.85;;;24.90;77.20;;;;;;5074089;28;20039;-60
2021/04/01 07:17:51;;;;;;;12.05;4.43;;;24.80;76.50;;;;;;5073833;28;20525;-59
2021/04/01 07:20:47;;;;;;;10.20;4.85;;;24.80;75.50;;;;;;5073439;28;20398;-59
2021/04/01 07:35:46;;;;;;;16.42;3.72;;;24.60;77.60;;;;;;5055355;28;20124;-61
2021/04/01 07:48:46;;;;;;;6.82;2.08;;;24.30;81.00;;;;;;5072458;28;20714;-60
2021/04/01 07:54:03;;;;;;;11.77;3.00;;;24.20;82.10;;;;;;5073183;28;20028;-60
2021/04/01 07:56:37;;;;;;;11.05;2.47;;;24.10;81.80;;;;;;5072609;28;20033;-61
2021/04/01 08:04:29;;;;;;;17.60;3.80;;;23.90;78.80;;;;;;5074287;28;20024;-60
2021/04/01 08:07:14;;;;;;;9.88;2.20;;;23.90;82.70;;;;;;5074122;28;20129;-60
2021/04/01 08:09:47;;;;;;;14.90;3.47;;;23.80;79.30;;;;;;5074033;28;20025;-61
2021/04/01 08:12:33;;;;;;;7.85;2.78;;;23.70;79.60;;;;;;5074147;28;20545;-60
2021/04/01 08:15:11;;;;;;;9.07;3.50;;;23.80;81.30;;;;;;5060971;28;20032;-59
2021/04/01 08:17:54;;;;;;;14.73;3.17;;;23.70;78.50;;;;;;5072949;28;20025;-61
2021/04/01 08:20:26;;;;;;;22.77;4.22;;;23.70;83.80;;;;;;5074236;28;20452;-61
2021/04/01 08:26:39;;;;;;;17.63;4.07;;;23.70;86.20;;;;;;5073095;28;20032;-60
2021/04/01 08:28:46;;;;;;;15.82;3.88;;;23.70;85.00;;;;;;5065455;28;20045;-63
2021/04/01 08:33:57;;;;;;;17.25;4.35;;;23.80;87.10;;;;;;5072566;28;20028;-58
2021/04/01 08:36:26;;;;;;;13.05;3.38;;;23.80;86.90;;;;;;5072893;28;20028;-61
2021/04/01 08:38:54;;;;;;;11.13;3.35;;;23.80;85.20;;;;;;5071537;28;20024;-58
2021/04/01 08:41:29;;;;;;;11.00;2.85;;;23.70;83.50;;;;;;5073018;28;20086;-60
2021/04/01 08:44:27;;;;;;;13.68;2.83;;;23.70;83.40;;;;;;5073221;28;20107;-58
2021/04/01 08:47:31;;;;;;;12.60;3.30;;;23.70;84.30;;;;;;5073303;28;20096;-63
2021/04/01 08:50:30;;;;;;;15.35;3.47;;;23.70;84.30;;;;;;5073254;28;20049;-58
2021/04/01 08:53:34;;;;;;;15.48;3.60;;;23.70;85.40;;;;;;5064548;28;20071;-58
2021/04/01 08:56:26;;;;;;;10.63;2.75;;;23.60;84.90;;;;;;5069428;28;20028;-61
2021/04/01 08:59:36;;;;;;;8.68;2.85;;;23.70;85.20;;;;;;5068681;28;20115;-56
2021/04/01 09:02:05;;;;;;;15.02;2.92;;;23.70;84.90;;;;;;5071543;28;20033;-60
2021/04/01 09:04:36;;;;;;;7.00;2.47;;;23.60;85.80;;;;;;5072421;28;20024;-60
2021/04/01 09:07:08;;;;;;;7.18;2.50;;;23.60;83.80;;;;;;5072031;28;20052;-56
2021/04/01 09:09:39;;;;;;;9.52;3.13;;;23.60;84.70;;;;;;5055197;28;20020;-59
2021/04/01 09:12:29;;;;;;;10.88;2.83;;;23.60;85.50;;;;;;5072806;28;20040;-61
2021/04/01 09:15:03;;;;;;;8.82;3.10;;;23.50;84.40;;;;;;5072445;28;20495;-59
2021/04/01 09:17:36;;;;;;;13.23;3.15;;;23.50;85.30;;;;;;5072649;28;20082;-51
2021/04/01 09:20:20;;;;;;;11.38;3.80;;;23.40;83.70;;;;;;5072652;28;20410;-57
2021/04/01 09:22:56;;;;;;;9.70;3.35;;;23.40;86.00;;;;;;5072177;28;20132;-60
2021/04/01 09:25:36;;;;;;;13.07;3.72;;;23.40;85.50;;;;;;5071341;28;20023;-57
2021/04/01 09:28:06;;;;;;;8.90;3.00;;;23.40;86.80;;;;;;5071402;28;20406;-59
2021/04/01 09:30:34;;;;;;;11.10;3.97;;;23.40;84.60;;;;;;5072462;28;20631;-61
2021/04/01 09:33:25;;;;;;;13.68;6.05;;;23.40;87.20;;;;;;5072035;28;20100;-57
2021/04/01 09:35:54;;;;;;;17.98;9.98;;;23.40;87.50;;;;;;5072280;28;20047;-55
2021/04/01 09:38:21;;;;;;;12.90;7.53;;;23.30;84.50;;;;;;5071531;28;20112;-61
2021/04/01 09:40:49;;;;;;;24.08;9.70;;;23.30;83.70;;;;;;5072199;28;20032;-52
2021/04/01 09:43:21;;;;;;;13.93;7.47;;;23.30;85.00;;;;;;5072074;28;20036;-62
2021/04/01 09:45:58;;;;;;;10.93;7.28;;;23.30;84.30;;;;;;5063635;28;20112;-62
2021/04/01 09:48:34;;;;;;;13.32;7.35;;;23.30;84.10;;;;;;5046016;28;20039;-58
2021/04/01 09:51:02;;;;;;;21.40;5.63;;;23.30;85.50;;;;;;5068529;28;20127;-58
2021/04/01 09:53:32;;;;;;;9.00;5.38;;;23.30;85.30;;;;;;5051662;28;20032;-64
2021/04/01 09:55:59;;;;;;;9.55;5.60;;;23.30;85.80;;;;;;5069254;28;20554;-62
2021/04/01 09:58:31;;;;;;;11.65;5.75;;;23.30;85.80;;;;;;5069637;28;20086;-55
2021/04/01 10:01:33;;;;;;;;;;;23.20;85.70;;;;;;5066522;28;20037;-62
2021/04/01 10:04:06;;;;;;;13.47;6.77;;;23.20;85.20;;;;;;5069900;28;19909;-47
2021/04/01 10:06:43;;;;;;;14.98;7.68;;;23.20;85.50;;;;;;5069002;28;20274;-51
2021/04/01 10:09:15;;;;;;;14.23;7.38;;;23.20;85.60;;;;;;5068163;28;20544;-50
2021/04/01 10:12:00;;;;;;;16.13;8.05;;;23.20;85.20;;;;;;5065972;28;20036;-54
2021/04/01 10:14:29;;;;;;;16.67;7.13;;;23.10;85.20;;;;;;5068951;28;20101;-53
2021/04/01 10:16:58;;;;;;;14.95;7.57;;;23.10;85.50;;;;;;5068825;28;20114;-54
2021/04/01 10:19:38;;;;;;;10.73;8.05;;;23.10;85.70;;;;;;5069724;28;20052;-52
2021/04/01 10:22:28;;;;;;;14.70;8.43;;;23.10;85.50;;;;;;5067338;28;20043;-52
2021/04/01 10:25:10;;;;;;;11.10;8.90;;;23.10;85.60;;;;;;5070084;28;20042;-53
2021/04/01 10:27:46;;;;;;;;;;;23.10;85.60;;;;;;5069282;28;20110;-54
2021/04/01 10:30:14;;;;;;;15.70;11.77;;;23.10;85.50;;;;;;5065559;28;20057;-51
2021/04/01 10:32:54;;;;;;;12.88;11.52;;;23.00;85.50;;;;;;5067134;28;20098;-61
2021/04/01 10:35:37;;;;;;;13.27;11.15;;;23.00;85.80;;;;;;5070099;28;20161;-55
2021/04/01 10:38:15;;;;;;;12.38;10.30;;;23.00;85.20;;;;;;5056926;28;20086;-53
2021/04/01 10:40:48;;;;;;;16.30;11.23;;;23.00;85.80;;;;;;5069683;28;20047;-55
2021/04/01 10:43:22;;;;;;;13.52;10.55;;;23.00;85.90;;;;;;5073150;28;20048;-56
2021/04/01 10:45:50;;;;;;;13.20;10.20;;;23.00;85.60;;;;;;5073399;28;20166;-60
2021/04/01 10:48:24;;;;;;;15.25;9.82;;;23.00;85.50;;;;;;5056287;28;20028;-56
2021/04/01 10:50:53;;;;;;;13.20;9.73;;;23.00;85.50;;;;;;5069591;28;20067;-58
2021/04/01 10:53:25;;;;;;;15.73;9.48;;;23.00;85.50;;;;;;5073690;28;20064;-61
2021/04/01 10:56:04;;;;;;;13.77;9.35;;;23.00;85.30;;;;;;5073741;28;20052;-59
2021/04/01 10:58:32;;;;;;;12.00;9.23;;;22.90;85.30;;;;;;5070908;28;20145;-63
2021/04/01 11:01:01;;;;;;;11.85;8.32;;;22.90;85.20;;;;;;5048571;28;20028;-56
2021/04/01 11:03:43;;;;;;;12.32;8.93;;;22.90;84.90;;;;;;5073224;28;20039;-54
2021/04/01 11:06:16;;;;;;;11.32;8.60;;;22.90;85.00;;;;;;5071925;28;20040;-63
2021/04/01 11:08:46;;;;;;;11.63;8.68;;;22.90;85.00;;;;;;5073646;28;20029;-58
2021/04/01 11:11:15;;;;;;;12.38;9.00;;;22.90;84.90;;;;;;5068680;28;20017;-52
2021/04/01 11:13:48;;;;;;;10.68;7.78;;;22.80;85.00;;;;;;5073679;28;20099;-59
2021/04/01 11:16:16;;;;;;;9.05;7.88;;;22.80;84.60;;;;;;5054464;28;20101;-60
2021/04/01 11:18:52;;;;;;;14.60;8.10;;;22.90;84.70;;;;;;5072961;28;20044;-59
2021/04/01 11:21:22;;;;;;;10.00;8.35;;;22.80;84.90;;;;;;5068236;28;20123;-53
2021/04/01 11:23:50;;;;;;;9.45;7.97;;;22.80;84.90;;;;;;5073641;28;20074;-54
2021/04/01 11:26:27;;;;;;;9.32;7.90;;;22.80;84.90;;;;;;5071848;28;20032;-56
2021/04/01 11:28:55;;;;;;;12.05;8.80;;;22.80;84.90;;;;;;5072631;28;20035;-54
2021/04/01 11:31:25;;;;;;;12.63;7.50;;;22.80;84.90;;;;;;5049990;28;20028;-60
2021/04/01 11:33:57;;;;;;;9.48;7.85;;;22.80;85.00;;;;;;5055685;28;20021;-55
2021/04/01 11:36:28;;;;;;;8.30;7.50;;;22.70;84.90;;;;;;5071940;28;20032;-55
2021/04/01 11:39:02;;;;;;;9.25;7.70;;;22.70;84.80;;;;;;5055501;28;20074;-59
2021/04/01 11:41:30;;;;;;;10.07;7.97;;;22.70;84.80;;;;;;5067468;28;20032;-54
2021/04/01 11:43:59;;;;;;;13.35;7.93;;;22.70;84.90;;;;;;5073000;28;20032;-52
2021/04/01 11:46:33;;;;;;;9.93;7.40;;;22.70;84.70;;;;;;5071907;28;20020;-58
2021/04/01 11:49:01;;;;;;;8.95;8.05;;;22.70;84.80;;;;;;5071828;28;20024;-60
2021/04/01 11:51:31;;;;;;;9.43;7.10;;;22.70;84.50;;;;;;5067141;28;20029;-58
2021/04/01 11:53:59;;;;;;;9.90;6.93;;;22.60;84.60;;;;;;5072397;28;20136;-59
2021/04/01 11:56:41;;;;;;;16.38;7.93;;;22.60;84.60;;;;;;5071693;28;20418;-68
2021/04/01 11:59:13;;;;;;;9.15;6.50;;;22.60;84.40;;;;;;5070551;28;20463;-57
2021/04/01 12:01:50;;;;;;;;;;;22.60;84.40;;;;;;5065996;28;20040;-59
2021/04/01 12:04:19;;;;;;;9.70;7.43;;;22.60;84.40;;;;;;5071523;28;19919;-54
2021/04/01 12:06:47;;;;;;;7.95;6.57;;;22.60;84.60;;;;;;5072027;28;20143;-51
2021/04/01 12:09:18;;;;;;;6.93;6.25;;;22.60;84.50;;;;;;5072954;28;20025;-59
2021/04/01 12:11:46;;;;;;;10.65;6.85;;;22.60;84.40;;;;;;5066802;28;20066;-55
2021/04/01 12:14:16;;;;;;;7.13;6.43;;;22.60;84.30;;;;;;5070221;28;20059;-61
2021/04/01 12:16:44;;;;;;;9.60;6.45;;;22.50;84.20;;;;;;5069883;28;20380;-55
2021/04/01 12:19:11;;;;;;;9.13;6.47;;;22.50;84.30;;;;;;5072411;28;20487;-58
2021/04/01 12:21:40;;;;;;;6.85;5.57;;;22.50;84.40;;;;;;5067980;28;20047;-58
2021/04/01 12:24:09;;;;;;;8.35;6.53;;;22.50;84.40;;;;;;5048916;28;20021;-56
2021/04/01 12:26:47;;;;;;;8.23;6.30;;;22.50;84.40;;;;;;5053760;28;20037;-52
2021/04/01 12:29:14;;;;;;;7.82;6.22;;;22.40;84.40;;;;;;5053549;28;20025;-59
2021/04/01 12:31:48;;;;;;;8.18;6.00;;;22.40;84.70;;;;;;5053281;28;20382;-55
2021/04/01 12:34:29;;;;;;;7.35;6.07;;;22.40;84.70;;;;;;5053546;28;20206;-59
2021/04/01 12:37:04;;;;;;;8.35;6.35;;;22.30;84.80;;;;;;5053675;28;20025;-54
2021/04/01 12:39:38;;;;;;;6.70;5.60;;;22.30;84.40;;;;;;5052684;28;20029;-60
2021/04/01 12:42:06;;;;;;;8.20;5.93;;;22.20;84.90;;;;;;5054941;28;20392;-56
2021/04/01 12:44:39;;;;;;;9.57;5.63;;;22.20;85.00;;;;;;5071415;28;20119;-64
2021/04/01 12:47:07;;;;;;;6.63;5.50;;;22.20;85.30;;;;;;5072991;28;20541;-59
2021/04/01 12:49:36;;;;;;;10.38;5.57;;;22.20;85.30;;;;;;5064475;28;20028;-52
2021/04/01 12:52:06;;;;;;;10.00;6.03;;;22.20;85.20;;;;;;5071507;28;20029;-56
2021/04/01 12:54:43;;;;;;;11.07;6.13;;;22.10;85.30;;;;;;5071105;28;20185;-55
2021/04/01 12:57:16;;;;;;;13.15;5.88;;;22.10;85.20;;;;;;5069330;28;20028;-58
2021/04/01 12:59:49;;;;;;;9.43;5.25;;;22.10;85.30;;;;;;5067189;28;20514;-59
2021/04/01 13:02:22;;;;;;;6.38;5.25;;;22.10;85.30;;;;;;5069748;28;20067;-60
2021/04/01 13:05:10;;;;;;;9.85;5.97;;;22.10;85.40;;;;;;5071815;28;20375;-62
2021/04/01 13:10:39;;;;;;;7.80;4.32;;;22.00;85.40;;;;;;5069795;28;20086;-60
2021/04/01 13:13:08;;;;;;;6.68;5.07;;;22.00;85.40;;;;;;5070590;28;20029;-59
2021/04/01 13:15:36;;;;;;;7.57;5.35;;;22.00;85.60;;;;;;5072091;28;20031;-64
2021/04/01 13:18:17;;;;;;;9.40;5.40;;;22.00;85.80;;;;;;5048466;28;20039;-63
2021/04/01 13:20:46;;;;;;;7.57;5.82;;;22.00;85.80;;;;;;5067676;28;20125;-62
2021/04/01 13:23:57;;;;;;;8.73;5.18;;;21.90;85.80;;;;;;5071131;28;20487;-62
2021/04/01 13:26:45;;;;;;;5.93;5.07;;;21.90;85.90;;;;;;5070488;28;20016;-61
2021/04/01 13:29:14;;;;;;;7.82;4.93;;;21.90;86.00;;;;;;5065213;28;20081;-62
2021/04/01 13:34:21;;;;;;;7.85;5.57;;;21.90;86.10;;;;;;5070964;28;20028;-63
2021/04/01 13:37:03;;;;;;;7.15;5.53;;;21.90;86.10;;;;;;5065135;28;20032;-55
2021/04/01 13:42:09;;;;;;;6.75;5.13;;;21.80;86.20;;;;;;5067021;28;20414;-58
2021/04/01 13:45:06;;;;;;;7.68;5.35;;;21.80;86.20;;;;;;5068434;28;20025;-56
2021/04/01 13:47:27;;;;;;;7.18;5.22;;;21.80;86.30;;;;;;5070348;28;20097;-56
2021/04/01 13:49:56;;;;;;;6.85;4.95;;;21.80;86.20;;;;;;5065568;28;20025;-58
2021/04/01 13:55:48;;;;;;;9.05;4.97;;;21.70;86.30;;;;;;5070953;28;20052;-58
2021/04/01 14:09:38;;;;;;;7.35;4.97;;;21.70;86.40;;;;;;5067110;28;20078;-52
2021/04/01 14:12:08;;;;;;;7.18;4.97;;;21.70;86.50;;;;;;5067805;28;20029;-57
2021/04/01 14:14:38;;;;;;;8.57;4.45;;;21.70;86.50;;;;;;5069725;28;20336;-56
2021/04/01 14:17:06;;;;;;;7.03;4.90;;;21.70;86.50;;;;;;5070679;28;20028;-61
2021/04/01 14:19:36;;;;;;;8.38;4.75;;;21.70;86.60;;;;;;5069074;28;20021;-57
2021/04/01 14:22:04;;;;;;;5.85;4.05;;;21.70;86.60;;;;;;5065776;28;20036;-54
2021/04/01 14:24:55;;;;;;;8.20;4.47;;;21.70;86.60;;;;;;5066528;28;20107;-58
2021/04/01 14:29:58;;;;;;;6.82;4.65;;;21.70;86.70;;;;;;5069451;28;20025;-55
2021/04/01 14:32:28;;;;;;;6.57;4.60;;;21.60;86.70;;;;;;5066320;28;20028;-52
2021/04/01 14:35:00;;;;;;;6.43;4.43;;;21.60;86.70;;;;;;5070104;28;20078;-59
2021/04/01 14:37:34;;;;;;;5.43;4.22;;;21.60;86.70;;;;;;5070174;28;20059;-52
2021/04/01 14:40:07;;;;;;;5.07;4.13;;;21.60;86.80;;;;;;5069442;28;20182;-54
2021/04/01 14:42:57;;;;;;;6.18;4.03;;;21.60;86.80;;;;;;5068379;28;20032;-59
2021/04/01 14:45:22;;;;;;;6.18;4.53;;;21.60;86.80;;;;;;5068435;28;20506;-60
2021/04/01 14:47:51;;;;;;;4.85;3.95;;;21.50;86.80;;;;;;5069848;28;20441;-60
2021/04/01 14:50:18;;;;;;;6.78;4.30;;;21.50;86.90;;;;;;5065219;28;20555;-60
2021/04/01 14:52:46;;;;;;;4.70;3.60;;;21.50;86.90;;;;;;5051901;28;20115;-56
2021/04/01 14:55:16;;;;;;;5.13;4.30;;;21.50;87.60;;;;;;5069916;28;20103;-56
2021/04/01 14:57:44;;;;;;;5.93;4.30;;;21.50;87.00;;;;;;5069859;28;20024;-57
2021/04/01 15:00:15;;;;;;;6.40;4.10;;;21.50;87.10;;;;;;5066276;28;20059;-53
2021/04/01 15:02:44;;;;;;;6.00;4.07;;;21.40;87.00;;;;;;5050366;28;20037;-55
2021/04/01 15:05:12;;;;;;;5.50;3.70;;;21.50;87.10;;;;;;5066823;28;20479;-59